sensor_id;sensor_type;location;lat;lon;timestamp;P1;durP1;ratioP1;P2;durP2;ratioP2
67100;SDS011;54019;61.746;16.106;2022-10-04T00:01:42;0.68;;;0.20;;
67100;SDS011;54019;61.746;16.106;2022-10-04T00:04:12;0.98;;;0.30;;
67100;SDS011;54019;61.746;16.106;2022-10-04T00:06:45;1.35;;;0.22;;
67100;SDS011;54019;61.746;16.106;2022-10-04T00:09:16;0.22;;;0.10;;
67100;SDS011;54019;61.746;16.106;2022-10-04T00:11:46;0.77;;;0.10;;
67100;SDS011;54019;61.746;16.106;2022-10-04T00:14:14;0.82;;;0.30;;
67100;SDS011;54019;61.746;16.106;2022-10-04T00:16:43;1.98;;;0.20;;
67100;SDS011;54019;61.746;16.106;2022-10-04T00:19:23;0.38;;;0.20;;
67100;SDS011;54019;61.746;16.106;2022-10-04T00:22:13;1.10;;;0.22;;
67100;SDS011;54019;61.746;16.106;2022-10-04T00:33:37;3.50;;;0.40;;
67100;SDS011;54019;61.746;16.106;2022-10-04T00:39:10;1.60;;;0.30;;
67100;SDS011;54019;61.746;16.106;2022-10-04T00:41:46;0.57;;;0.30;;
67100;SDS011;54019;61.746;16.106;2022-10-04T00:44:20;0.95;;;0.20;;
67100;SDS011;54019;61.746;16.106;2022-10-04T00:46:50;1.05;;;0.30;;
67100;SDS011;54019;61.746;16.106;2022-10-04T00:49:19;0.40;;;0.30;;
67100;SDS011;54019;61.746;16.106;2022-10-04T00:51:49;0.40;;;0.32;;
67100;SDS011;54019;61.746;16.106;2022-10-04T00:54:22;0.57;;;0.30;;
67100;SDS011;54019;61.746;16.106;2022-10-04T00:56:54;2.05;;;0.40;;
67100;SDS011;54019;61.746;16.106;2022-10-04T00:59:26;0.45;;;0.20;;
67100;SDS011;54019;61.746;16.106;2022-10-04T01:01:58;0.30;;;0.30;;
67100;SDS011;54019;61.746;16.106;2022-10-04T01:04:37;0.10;;;0.10;;
67100;SDS011;54019;61.746;16.106;2022-10-04T01:07:06;0.50;;;0.40;;
67100;SDS011;54019;61.746;16.106;2022-10-04T01:09:35;0.52;;;0.25;;
67100;SDS011;54019;61.746;16.106;2022-10-04T01:12:12;0.30;;;0.30;;
67100;SDS011;54019;61.746;16.106;2022-10-04T01:14:46;0.30;;;0.20;;
67100;SDS011;54019;61.746;16.106;2022-10-04T01:17:19;0.30;;;0.28;;
67100;SDS011;54019;61.746;16.106;2022-10-04T01:19:50;1.75;;;0.20;;
67100;SDS011;54019;61.746;16.106;2022-10-04T01:22:28;0.30;;;0.22;;
67100;SDS011;54019;61.746;16.106;2022-10-04T01:25:02;0.52;;;0.30;;
67100;SDS011;54019;61.746;16.106;2022-10-04T01:27:32;1.08;;;0.30;;
67100;SDS011;54019;61.746;16.106;2022-10-04T01:30:00;0.30;;;0.20;;
67100;SDS011;54019;61.746;16.106;2022-10-04T01:32:29;0.75;;;0.20;;
67100;SDS011;54019;61.746;16.106;2022-10-04T01:34:56;1.30;;;0.30;;
67100;SDS011;54019;61.746;16.106;2022-10-04T01:37:23;0.30;;;0.30;;
67100;SDS011;54019;61.746;16.106;2022-10-04T01:39:49;0.20;;;0.20;;
67100;SDS011;54019;61.746;16.106;2022-10-04T01:42:16;0.20;;;0.20;;
67100;SDS011;54019;61.746;16.106;2022-10-04T01:44:47;0.60;;;0.15;;
67100;SDS011;54019;61.746;16.106;2022-10-04T01:47:18;0.27;;;0.20;;
67100;SDS011;54019;61.746;16.106;2022-10-04T01:49:48;0.20;;;0.20;;
67100;SDS011;54019;61.746;16.106;2022-10-04T01:52:17;0.80;;;0.20;;
67100;SDS011;54019;61.746;16.106;2022-10-04T01:54:47;0.20;;;0.20;;
67100;SDS011;54019;61.746;16.106;2022-10-04T01:57:17;0.17;;;0.15;;
67100;SDS011;54019;61.746;16.106;2022-10-04T01:59:48;0.10;;;0.10;;
67100;SDS011;54019;61.746;16.106;2022-10-04T02:02:18;0.93;;;0.20;;
67100;SDS011;54019;61.746;16.106;2022-10-04T02:04:49;0.37;;;0.20;;
67100;SDS011;54019;61.746;16.106;2022-10-04T02:07:18;1.45;;;0.28;;
67100;SDS011;54019;61.746;16.106;2022-10-04T02:09:46;0.20;;;0.20;;
67100;SDS011;54019;61.746;16.106;2022-10-04T02:12:18;0.65;;;0.25;;
67100;SDS011;54019;61.746;16.106;2022-10-04T02:14:45;0.30;;;0.30;;
67100;SDS011;54019;61.746;16.106;2022-10-04T02:17:12;0.25;;;0.20;;
67100;SDS011;54019;61.746;16.106;2022-10-04T02:19:39;0.20;;;0.20;;
67100;SDS011;54019;61.746;16.106;2022-10-04T02:22:06;0.30;;;0.17;;
67100;SDS011;54019;61.746;16.106;2022-10-04T02:24:35;0.38;;;0.15;;
67100;SDS011;54019;61.746;16.106;2022-10-04T02:27:05;0.90;;;0.15;;
67100;SDS011;54019;61.746;16.106;2022-10-04T02:29:31;0.20;;;0.20;;
67100;SDS011;54019;61.746;16.106;2022-10-04T02:31:57;0.20;;;0.20;;
67100;SDS011;54019;61.746;16.106;2022-10-04T02:34:24;1.30;;;0.10;;
67100;SDS011;54019;61.746;16.106;2022-10-04T02:36:50;0.30;;;0.20;;
67100;SDS011;54019;61.746;16.106;2022-10-04T02:39:17;0.22;;;0.20;;
67100;SDS011;54019;61.746;16.106;2022-10-04T02:41:47;0.57;;;0.13;;
67100;SDS011;54019;61.746;16.106;2022-10-04T02:44:18;0.13;;;0.10;;
67100;SDS011;54019;61.746;16.106;2022-10-04T02:46:49;0.35;;;0.20;;
67100;SDS011;54019;61.746;16.106;2022-10-04T02:49:19;0.90;;;0.20;;
67100;SDS011;54019;61.746;16.106;2022-10-04T02:51:51;0.40;;;0.20;;
67100;SDS011;54019;61.746;16.106;2022-10-04T02:54:26;0.20;;;0.20;;
67100;SDS011;54019;61.746;16.106;2022-10-04T02:56:54;0.63;;;0.10;;
67100;SDS011;54019;61.746;16.106;2022-10-04T02:59:23;0.75;;;0.20;;
67100;SDS011;54019;61.746;16.106;2022-10-04T03:01:49;0.40;;;0.20;;
67100;SDS011;54019;61.746;16.106;2022-10-04T03:04:18;0.70;;;0.10;;
67100;SDS011;54019;61.746;16.106;2022-10-04T03:06:46;0.30;;;0.10;;
67100;SDS011;54019;61.746;16.106;2022-10-04T03:09:13;0.25;;;0.20;;
67100;SDS011;54019;61.746;16.106;2022-10-04T03:11:40;0.60;;;0.20;;
67100;SDS011;54019;61.746;16.106;2022-10-04T03:14:07;1.85;;;0.10;;
67100;SDS011;54019;61.746;16.106;2022-10-04T03:16:38;0.25;;;0.20;;
67100;SDS011;54019;61.746;16.106;2022-10-04T03:19:06;0.30;;;0.20;;
67100;SDS011;54019;61.746;16.106;2022-10-04T03:21:32;0.10;;;0.10;;
67100;SDS011;54019;61.746;16.106;2022-10-04T03:24:00;0.38;;;0.20;;
67100;SDS011;54019;61.746;16.106;2022-10-04T03:26:28;0.22;;;0.20;;
67100;SDS011;54019;61.746;16.106;2022-10-04T03:28:57;0.13;;;0.13;;
67100;SDS011;54019;61.746;16.106;2022-10-04T03:31:24;0.57;;;0.20;;
67100;SDS011;54019;61.746;16.106;2022-10-04T03:33:54;0.25;;;0.20;;
67100;SDS011;54019;61.746;16.106;2022-10-04T03:36:22;0.10;;;0.10;;
67100;SDS011;54019;61.746;16.106;2022-10-04T03:38:49;0.20;;;0.20;;
67100;SDS011;54019;61.746;16.106;2022-10-04T03:41:18;0.17;;;0.17;;
67100;SDS011;54019;61.746;16.106;2022-10-04T03:43:44;0.93;;;0.30;;
67100;SDS011;54019;61.746;16.106;2022-10-04T03:46:12;1.08;;;0.20;;
67100;SDS011;54019;61.746;16.106;2022-10-04T03:48:39;0.20;;;0.20;;
67100;SDS011;54019;61.746;16.106;2022-10-04T03:51:10;0.65;;;0.28;;
67100;SDS011;54019;61.746;16.106;2022-10-04T03:53:43;0.20;;;0.20;;
67100;SDS011;54019;61.746;16.106;2022-10-04T03:56:11;0.20;;;0.20;;
67100;SDS011;54019;61.746;16.106;2022-10-04T03:58:41;0.30;;;0.10;;
67100;SDS011;54019;61.746;16.106;2022-10-04T04:01:12;0.10;;;0.10;;
67100;SDS011;54019;61.746;16.106;2022-10-04T04:03:56;0.32;;;0.20;;
67100;SDS011;54019;61.746;16.106;2022-10-04T04:06:29;3.63;;;0.35;;
67100;SDS011;54019;61.746;16.106;2022-10-04T04:09:01;0.25;;;0.15;;
67100;SDS011;54019;61.746;16.106;2022-10-04T04:11:30;0.10;;;0.10;;
67100;SDS011;54019;61.746;16.106;2022-10-04T04:13:59;1.10;;;0.30;;
67100;SDS011;54019;61.746;16.106;2022-10-04T04:16:27;0.22;;;0.10;;
67100;SDS011;54019;61.746;16.106;2022-10-04T04:18:54;0.25;;;0.20;;
67100;SDS011;54019;61.746;16.106;2022-10-04T04:21:25;0.47;;;0.20;;
67100;SDS011;54019;61.746;16.106;2022-10-04T04:23:54;0.35;;;0.10;;
67100;SDS011;54019;61.746;16.106;2022-10-04T04:26:24;0.43;;;0.20;;
67100;SDS011;54019;61.746;16.106;2022-10-04T04:29:00;0.25;;;0.17;;
67100;SDS011;54019;61.746;16.106;2022-10-04T04:31:30;0.85;;;0.20;;
67100;SDS011;54019;61.746;16.106;2022-10-04T04:34:00;0.22;;;0.20;;
67100;SDS011;54019;61.746;16.106;2022-10-04T04:36:29;1.15;;;0.20;;
67100;SDS011;54019;61.746;16.106;2022-10-04T04:39:07;1.65;;;0.38;;
67100;SDS011;54019;61.746;16.106;2022-10-04T04:41:38;10.75;;;0.45;;
67100;SDS011;54019;61.746;16.106;2022-10-04T04:44:11;0.63;;;0.28;;
67100;SDS011;54019;61.746;16.106;2022-10-04T04:46:41;0.47;;;0.20;;
67100;SDS011;54019;61.746;16.106;2022-10-04T04:49:08;0.38;;;0.25;;
67100;SDS011;54019;61.746;16.106;2022-10-04T04:51:37;0.80;;;0.30;;
67100;SDS011;54019;61.746;16.106;2022-10-04T04:54:04;1.70;;;0.13;;
67100;SDS011;54019;61.746;16.106;2022-10-04T04:56:31;0.50;;;0.30;;
67100;SDS011;54019;61.746;16.106;2022-10-04T04:58:59;0.93;;;0.20;;
67100;SDS011;54019;61.746;16.106;2022-10-04T05:01:27;0.77;;;0.20;;
67100;SDS011;54019;61.746;16.106;2022-10-04T05:04:00;0.68;;;0.20;;
67100;SDS011;54019;61.746;16.106;2022-10-04T05:06:27;0.10;;;0.10;;
67100;SDS011;54019;61.746;16.106;2022-10-04T05:08:58;0.60;;;0.22;;
67100;SDS011;54019;61.746;16.106;2022-10-04T05:11:25;0.10;;;0.10;;
67100;SDS011;54019;61.746;16.106;2022-10-04T05:13:55;2.00;;;0.30;;
67100;SDS011;54019;61.746;16.106;2022-10-04T05:16:25;1.05;;;0.17;;
67100;SDS011;54019;61.746;16.106;2022-10-04T05:18:54;1.85;;;0.20;;
67100;SDS011;54019;61.746;16.106;2022-10-04T05:21:24;2.17;;;0.28;;
67100;SDS011;54019;61.746;16.106;2022-10-04T05:23:52;5.45;;;0.40;;
67100;SDS011;54019;61.746;16.106;2022-10-04T05:26:22;3.55;;;0.25;;
67100;SDS011;54019;61.746;16.106;2022-10-04T05:28:51;3.30;;;0.50;;
67100;SDS011;54019;61.746;16.106;2022-10-04T05:31:25;5.18;;;0.40;;
67100;SDS011;54019;61.746;16.106;2022-10-04T05:33:58;4.07;;;0.47;;
67100;SDS011;54019;61.746;16.106;2022-10-04T05:36:36;3.35;;;1.00;;
67100;SDS011;54019;61.746;16.106;2022-10-04T05:39:13;2.35;;;0.60;;
67100;SDS011;54019;61.746;16.106;2022-10-04T05:41:50;2.65;;;1.00;;
67100;SDS011;54019;61.746;16.106;2022-10-04T05:44:23;1.60;;;0.70;;
67100;SDS011;54019;61.746;16.106;2022-10-04T05:46:50;2.00;;;0.50;;
67100;SDS011;54019;61.746;16.106;2022-10-04T05:49:17;0.77;;;0.50;;
67100;SDS011;54019;61.746;16.106;2022-10-04T05:51:48;1.40;;;0.55;;
67100;SDS011;54019;61.746;16.106;2022-10-04T05:54:20;0.55;;;0.40;;
67100;SDS011;54019;61.746;16.106;2022-10-04T05:59:39;0.40;;;0.40;;
67100;SDS011;54019;61.746;16.106;2022-10-04T06:02:22;1.95;;;0.35;;
67100;SDS011;54019;61.746;16.106;2022-10-04T06:07:48;0.20;;;0.20;;
67100;SDS011;54019;61.746;16.106;2022-10-04T06:10:28;0.70;;;0.30;;
67100;SDS011;54019;61.746;16.106;2022-10-04T06:13:24;0.75;;;0.30;;
67100;SDS011;54019;61.746;16.106;2022-10-04T06:16:08;0.73;;;0.20;;
67100;SDS011;54019;61.746;16.106;2022-10-04T06:18:59;1.35;;;0.25;;
67100;SDS011;54019;61.746;16.106;2022-10-04T06:22:04;0.60;;;0.30;;
67100;SDS011;54019;61.746;16.106;2022-10-04T06:24:39;0.20;;;0.20;;
67100;SDS011;54019;61.746;16.106;2022-10-04T06:27:08;0.30;;;0.20;;
67100;SDS011;54019;61.746;16.106;2022-10-04T06:29:40;0.10;;;0.10;;
67100;SDS011;54019;61.746;16.106;2022-10-04T06:32:13;0.38;;;0.20;;
67100;SDS011;54019;61.746;16.106;2022-10-04T06:35:14;0.35;;;0.20;;
67100;SDS011;54019;61.746;16.106;2022-10-04T06:38:20;1.27;;;0.10;;
67100;SDS011;54019;61.746;16.106;2022-10-04T06:41:10;0.40;;;0.20;;
67100;SDS011;54019;61.746;16.106;2022-10-04T06:46:23;1.65;;;0.20;;
67100;SDS011;54019;61.746;16.106;2022-10-04T06:49:01;0.35;;;0.20;;
67100;SDS011;54019;61.746;16.106;2022-10-04T06:51:52;0.10;;;0.10;;
67100;SDS011;54019;61.746;16.106;2022-10-04T06:54:36;0.20;;;0.20;;
67100;SDS011;54019;61.746;16.106;2022-10-04T06:57:24;0.22;;;0.20;;
67100;SDS011;54019;61.746;16.106;2022-10-04T07:00:10;1.08;;;0.20;;
67100;SDS011;54019;61.746;16.106;2022-10-04T07:02:48;0.73;;;0.20;;
67100;SDS011;54019;61.746;16.106;2022-10-04T07:05:19;0.15;;;0.13;;
67100;SDS011;54019;61.746;16.106;2022-10-04T07:07:51;0.40;;;0.10;;
67100;SDS011;54019;61.746;16.106;2022-10-04T07:10:29;1.27;;;0.20;;
67100;SDS011;54019;61.746;16.106;2022-10-04T07:13:04;0.10;;;0.10;;
67100;SDS011;54019;61.746;16.106;2022-10-04T07:15:47;1.02;;;0.10;;
67100;SDS011;54019;61.746;16.106;2022-10-04T07:18:21;0.10;;;0.10;;
67100;SDS011;54019;61.746;16.106;2022-10-04T07:20:51;0.70;;;0.20;;
67100;SDS011;54019;61.746;16.106;2022-10-04T07:23:25;0.25;;;0.10;;
67100;SDS011;54019;61.746;16.106;2022-10-04T07:25:56;0.10;;;0.10;;
67100;SDS011;54019;61.746;16.106;2022-10-04T07:28:27;0.85;;;0.10;;
67100;SDS011;54019;61.746;16.106;2022-10-04T07:30:56;0.10;;;0.10;;
67100;SDS011;54019;61.746;16.106;2022-10-04T07:33:27;0.10;;;0.10;;
67100;SDS011;54019;61.746;16.106;2022-10-04T07:35:59;0.10;;;0.10;;
67100;SDS011;54019;61.746;16.106;2022-10-04T07:38:30;0.43;;;0.22;;
67100;SDS011;54019;61.746;16.106;2022-10-04T07:41:03;0.32;;;0.20;;
67100;SDS011;54019;61.746;16.106;2022-10-04T07:43:34;0.30;;;0.20;;
67100;SDS011;54019;61.746;16.106;2022-10-04T07:46:11;0.10;;;0.10;;
67100;SDS011;54019;61.746;16.106;2022-10-04T07:48:44;0.10;;;0.10;;
67100;SDS011;54019;61.746;16.106;2022-10-04T07:51:13;0.20;;;0.20;;
67100;SDS011;54019;61.746;16.106;2022-10-04T07:53:47;0.10;;;0.10;;
67100;SDS011;54019;61.746;16.106;2022-10-04T07:56:19;0.10;;;0.10;;
67100;SDS011;54019;61.746;16.106;2022-10-04T07:58:52;0.30;;;0.30;;
67100;SDS011;54019;61.746;16.106;2022-10-04T08:01:26;0.40;;;0.40;;
67100;SDS011;54019;61.746;16.106;2022-10-04T08:06:42;0.20;;;0.20;;
67100;SDS011;54019;61.746;16.106;2022-10-04T08:09:32;0.30;;;0.30;;
67100;SDS011;54019;61.746;16.106;2022-10-04T08:12:17;0.30;;;0.30;;
67100;SDS011;54019;61.746;16.106;2022-10-04T08:14:52;0.80;;;0.65;;
67100;SDS011;54019;61.746;16.106;2022-10-04T08:20:19;1.35;;;0.93;;
67100;SDS011;54019;61.746;16.106;2022-10-04T08:23:07;1.10;;;0.90;;
67100;SDS011;54019;61.746;16.106;2022-10-04T08:25:47;1.33;;;0.80;;
67100;SDS011;54019;61.746;16.106;2022-10-04T08:28:23;2.17;;;1.10;;
67100;SDS011;54019;61.746;16.106;2022-10-04T08:31:02;0.73;;;0.70;;
67100;SDS011;54019;61.746;16.106;2022-10-04T08:33:44;0.63;;;0.63;;
67100;SDS011;54019;61.746;16.106;2022-10-04T08:36:24;0.70;;;0.52;;
67100;SDS011;54019;61.746;16.106;2022-10-04T08:39:05;1.52;;;0.50;;
67100;SDS011;54019;61.746;16.106;2022-10-04T08:41:52;1.23;;;0.50;;
67100;SDS011;54019;61.746;16.106;2022-10-04T08:44:54;2.42;;;0.50;;
67100;SDS011;54019;61.746;16.106;2022-10-04T08:51:01;0.70;;;0.50;;
67100;SDS011;54019;61.746;16.106;2022-10-04T08:57:04;0.98;;;0.40;;
67100;SDS011;54019;61.746;16.106;2022-10-04T09:00:02;1.63;;;0.45;;
67100;SDS011;54019;61.746;16.106;2022-10-04T09:05:51;0.43;;;0.40;;
67100;SDS011;54019;61.746;16.106;2022-10-04T09:08:39;1.27;;;0.43;;
67100;SDS011;54019;61.746;16.106;2022-10-04T09:11:48;0.82;;;0.40;;
67100;SDS011;54019;61.746;16.106;2022-10-04T09:14:47;0.50;;;0.25;;
67100;SDS011;54019;61.746;16.106;2022-10-04T09:17:38;0.60;;;0.32;;
67100;SDS011;54019;61.746;16.106;2022-10-04T09:20:17;0.40;;;0.40;;
67100;SDS011;54019;61.746;16.106;2022-10-04T09:22:46;0.40;;;0.30;;
67100;SDS011;54019;61.746;16.106;2022-10-04T09:25:20;0.47;;;0.20;;
67100;SDS011;54019;61.746;16.106;2022-10-04T09:28:04;0.57;;;0.38;;
67100;SDS011;54019;61.746;16.106;2022-10-04T09:30:49;0.68;;;0.30;;
67100;SDS011;54019;61.746;16.106;2022-10-04T09:33:30;0.50;;;0.35;;
67100;SDS011;54019;61.746;16.106;2022-10-04T09:36:14;0.45;;;0.25;;
67100;SDS011;54019;61.746;16.106;2022-10-04T09:39:31;0.70;;;0.28;;
67100;SDS011;54019;61.746;16.106;2022-10-04T09:42:14;0.28;;;0.25;;
67100;SDS011;54019;61.746;16.106;2022-10-04T09:44:54;0.70;;;0.20;;
67100;SDS011;54019;61.746;16.106;2022-10-04T09:47:41;0.10;;;0.10;;
67100;SDS011;54019;61.746;16.106;2022-10-04T09:50:23;0.45;;;0.35;;
67100;SDS011;54019;61.746;16.106;2022-10-04T09:53:09;1.27;;;0.20;;
67100;SDS011;54019;61.746;16.106;2022-10-04T09:56:06;0.45;;;0.20;;
67100;SDS011;54019;61.746;16.106;2022-10-04T09:58:54;0.45;;;0.20;;
67100;SDS011;54019;61.746;16.106;2022-10-04T10:01:44;0.65;;;0.40;;
67100;SDS011;54019;61.746;16.106;2022-10-04T10:04:37;1.70;;;0.30;;
67100;SDS011;54019;61.746;16.106;2022-10-04T10:07:14;1.75;;;0.25;;
67100;SDS011;54019;61.746;16.106;2022-10-04T10:10:00;0.20;;;0.20;;
67100;SDS011;54019;61.746;16.106;2022-10-04T10:15:31;0.63;;;0.20;;
67100;SDS011;54019;61.746;16.106;2022-10-04T10:18:11;0.20;;;0.20;;
67100;SDS011;54019;61.746;16.106;2022-10-04T10:20:48;0.65;;;0.30;;
67100;SDS011;54019;61.746;16.106;2022-10-04T10:23:44;0.20;;;0.20;;
67100;SDS011;54019;61.746;16.106;2022-10-04T10:26:35;0.30;;;0.20;;
67100;SDS011;54019;61.746;16.106;2022-10-04T10:32:23;1.30;;;0.20;;
67100;SDS011;54019;61.746;16.106;2022-10-04T10:38:06;0.43;;;0.30;;
67100;SDS011;54019;61.746;16.106;2022-10-04T10:43:42;1.15;;;0.40;;
67100;SDS011;54019;61.746;16.106;2022-10-04T10:46:37;0.20;;;0.20;;
67100;SDS011;54019;61.746;16.106;2022-10-04T10:49:19;0.43;;;0.20;;
67100;SDS011;54019;61.746;16.106;2022-10-04T10:52:08;0.20;;;0.20;;
67100;SDS011;54019;61.746;16.106;2022-10-04T10:57:59;0.25;;;0.25;;
67100;SDS011;54019;61.746;16.106;2022-10-04T11:00:56;0.20;;;0.20;;
67100;SDS011;54019;61.746;16.106;2022-10-04T11:03:40;0.15;;;0.10;;
67100;SDS011;54019;61.746;16.106;2022-10-04T11:09:49;0.75;;;0.28;;
67100;SDS011;54019;61.746;16.106;2022-10-04T11:12:47;0.52;;;0.30;;
67100;SDS011;54019;61.746;16.106;2022-10-04T11:15:38;0.90;;;0.20;;
67100;SDS011;54019;61.746;16.106;2022-10-04T11:21:25;0.20;;;0.20;;
67100;SDS011;54019;61.746;16.106;2022-10-04T11:27:14;0.32;;;0.22;;
67100;SDS011;54019;61.746;16.106;2022-10-04T11:29:57;0.80;;;0.20;;
67100;SDS011;54019;61.746;16.106;2022-10-04T11:35:51;0.35;;;0.25;;
67100;SDS011;54019;61.746;16.106;2022-10-04T11:38:32;1.55;;;0.20;;
67100;SDS011;54019;61.746;16.106;2022-10-04T11:41:16;0.32;;;0.30;;
67100;SDS011;54019;61.746;16.106;2022-10-04T11:47:09;6.90;;;0.63;;
67100;SDS011;54019;61.746;16.106;2022-10-04T11:49:53;3.90;;;0.50;;
67100;SDS011;54019;61.746;16.106;2022-10-04T11:52:44;0.95;;;0.63;;
67100;SDS011;54019;61.746;16.106;2022-10-04T11:55:30;2.58;;;0.50;;
67100;SDS011;54019;61.746;16.106;2022-10-04T11:58:12;0.47;;;0.30;;
67100;SDS011;54019;61.746;16.106;2022-10-04T12:00:45;3.53;;;0.47;;
67100;SDS011;54019;61.746;16.106;2022-10-04T12:06:42;4.65;;;0.57;;
67100;SDS011;54019;61.746;16.106;2022-10-04T12:09:21;1.23;;;0.60;;
67100;SDS011;54019;61.746;16.106;2022-10-04T12:11:54;4.20;;;0.60;;
67100;SDS011;54019;61.746;16.106;2022-10-04T12:14:55;3.03;;;0.43;;
67100;SDS011;54019;61.746;16.106;2022-10-04T12:17:44;1.20;;;0.60;;
67100;SDS011;54019;61.746;16.106;2022-10-04T12:32:28;1.23;;;0.50;;
67100;SDS011;54019;61.746;16.106;2022-10-04T12:34:59;2.17;;;0.43;;
67100;SDS011;54019;61.746;16.106;2022-10-04T12:37:36;1.67;;;0.50;;
67100;SDS011;54019;61.746;16.106;2022-10-04T12:40:15;1.27;;;0.60;;
67100;SDS011;54019;61.746;16.106;2022-10-04T12:42:54;1.40;;;0.32;;
67100;SDS011;54019;61.746;16.106;2022-10-04T12:45:30;3.03;;;0.70;;
67100;SDS011;54019;61.746;16.106;2022-10-04T12:48:19;0.70;;;0.50;;
67100;SDS011;54019;61.746;16.106;2022-10-04T12:50:52;2.28;;;0.50;;
67100;SDS011;54019;61.746;16.106;2022-10-04T12:58:31;1.95;;;0.40;;
67100;SDS011;54019;61.746;16.106;2022-10-04T13:01:12;2.47;;;0.50;;
67100;SDS011;54019;61.746;16.106;2022-10-04T13:03:58;2.70;;;0.50;;
67100;SDS011;54019;61.746;16.106;2022-10-04T13:06:39;1.20;;;0.50;;
67100;SDS011;54019;61.746;16.106;2022-10-04T13:09:22;1.40;;;0.30;;
67100;SDS011;54019;61.746;16.106;2022-10-04T13:12:08;1.48;;;0.30;;
67100;SDS011;54019;61.746;16.106;2022-10-04T13:14:48;2.25;;;0.57;;
67100;SDS011;54019;61.746;16.106;2022-10-04T13:17:27;2.38;;;0.50;;
67100;SDS011;54019;61.746;16.106;2022-10-04T13:20:11;2.53;;;0.52;;
67100;SDS011;54019;61.746;16.106;2022-10-04T13:22:49;3.17;;;0.77;;
67100;SDS011;54019;61.746;16.106;2022-10-04T13:25:38;2.33;;;0.68;;
67100;SDS011;54019;61.746;16.106;2022-10-04T13:28:15;1.73;;;0.73;;
67100;SDS011;54019;61.746;16.106;2022-10-04T13:30:48;3.40;;;0.60;;
67100;SDS011;54019;61.746;16.106;2022-10-04T13:35:50;2.40;;;0.57;;
67100;SDS011;54019;61.746;16.106;2022-10-04T13:38:34;2.95;;;0.70;;
67100;SDS011;54019;61.746;16.106;2022-10-04T13:41:16;1.33;;;0.60;;
67100;SDS011;54019;61.746;16.106;2022-10-04T13:44:04;2.55;;;0.60;;
67100;SDS011;54019;61.746;16.106;2022-10-04T13:46:47;1.45;;;0.45;;
67100;SDS011;54019;61.746;16.106;2022-10-04T13:49:28;2.72;;;0.40;;
67100;SDS011;54019;61.746;16.106;2022-10-04T13:52:09;3.00;;;0.60;;
67100;SDS011;54019;61.746;16.106;2022-10-04T13:54:47;1.00;;;0.30;;
67100;SDS011;54019;61.746;16.106;2022-10-04T13:57:22;1.30;;;0.50;;
67100;SDS011;54019;61.746;16.106;2022-10-04T13:59:58;2.10;;;0.40;;
67100;SDS011;54019;61.746;16.106;2022-10-04T14:05:35;1.80;;;0.40;;
67100;SDS011;54019;61.746;16.106;2022-10-04T14:14:34;1.38;;;0.30;;
67100;SDS011;54019;61.746;16.106;2022-10-04T14:17:23;0.70;;;0.40;;
67100;SDS011;54019;61.746;16.106;2022-10-04T14:23:37;0.65;;;0.30;;
67100;SDS011;54019;61.746;16.106;2022-10-04T14:26:48;0.65;;;0.30;;
67100;SDS011;54019;61.746;16.106;2022-10-04T14:29:34;1.13;;;0.35;;
67100;SDS011;54019;61.746;16.106;2022-10-04T14:35:20;0.82;;;0.30;;
67100;SDS011;54019;61.746;16.106;2022-10-04T14:37:59;2.33;;;0.32;;
67100;SDS011;54019;61.746;16.106;2022-10-04T14:41:01;0.52;;;0.30;;
67100;SDS011;54019;61.746;16.106;2022-10-04T14:46:51;0.35;;;0.25;;
67100;SDS011;54019;61.746;16.106;2022-10-04T14:49:25;3.17;;;0.20;;
67100;SDS011;54019;61.746;16.106;2022-10-04T14:52:09;0.73;;;0.25;;
67100;SDS011;54019;61.746;16.106;2022-10-04T14:54:49;1.05;;;0.40;;
67100;SDS011;54019;61.746;16.106;2022-10-04T14:57:18;0.40;;;0.20;;
67100;SDS011;54019;61.746;16.106;2022-10-04T15:00:04;0.77;;;0.20;;
67100;SDS011;54019;61.746;16.106;2022-10-04T15:02:43;0.28;;;0.20;;
67100;SDS011;54019;61.746;16.106;2022-10-04T15:05:33;0.30;;;0.20;;
67100;SDS011;54019;61.746;16.106;2022-10-04T15:08:11;2.78;;;0.30;;
67100;SDS011;54019;61.746;16.106;2022-10-04T15:11:05;0.20;;;0.20;;
67100;SDS011;54019;61.746;16.106;2022-10-04T15:13:33;0.30;;;0.10;;
67100;SDS011;54019;61.746;16.106;2022-10-04T15:16:05;0.20;;;0.20;;
67100;SDS011;54019;61.746;16.106;2022-10-04T15:18:45;0.40;;;0.30;;
67100;SDS011;54019;61.746;16.106;2022-10-04T15:21:25;1.23;;;0.20;;
67100;SDS011;54019;61.746;16.106;2022-10-04T15:24:09;0.75;;;0.30;;
67100;SDS011;54019;61.746;16.106;2022-10-04T15:26:57;0.50;;;0.20;;
67100;SDS011;54019;61.746;16.106;2022-10-04T15:29:59;3.30;;;0.30;;
67100;SDS011;54019;61.746;16.106;2022-10-04T15:32:34;0.77;;;0.30;;
67100;SDS011;54019;61.746;16.106;2022-10-04T15:35:13;1.10;;;0.32;;
67100;SDS011;54019;61.746;16.106;2022-10-04T15:37:48;5.00;;;0.40;;
67100;SDS011;54019;61.746;16.106;2022-10-04T15:40:33;0.90;;;0.20;;
67100;SDS011;54019;61.746;16.106;2022-10-04T15:43:08;3.83;;;0.28;;
67100;SDS011;54019;61.746;16.106;2022-10-04T15:45:54;1.65;;;0.50;;
67100;SDS011;54019;61.746;16.106;2022-10-04T15:48:54;0.70;;;0.30;;
67100;SDS011;54019;61.746;16.106;2022-10-04T15:51:57;1.25;;;0.35;;
67100;SDS011;54019;61.746;16.106;2022-10-04T15:54:41;0.75;;;0.25;;
67100;SDS011;54019;61.746;16.106;2022-10-04T15:57:28;0.65;;;0.20;;
67100;SDS011;54019;61.746;16.106;2022-10-04T16:00:03;1.13;;;0.30;;
67100;SDS011;54019;61.746;16.106;2022-10-04T16:02:46;2.20;;;0.40;;
67100;SDS011;54019;61.746;16.106;2022-10-04T16:05:24;0.20;;;0.20;;
67100;SDS011;54019;61.746;16.106;2022-10-04T16:08:08;0.40;;;0.30;;
67100;SDS011;54019;61.746;16.106;2022-10-04T16:10:57;8.23;;;0.43;;
67100;SDS011;54019;61.746;16.106;2022-10-04T16:13:39;3.20;;;0.38;;
67100;SDS011;54019;61.746;16.106;2022-10-04T16:19:10;0.85;;;0.30;;
67100;SDS011;54019;61.746;16.106;2022-10-04T16:21:52;2.05;;;0.40;;
67100;SDS011;54019;61.746;16.106;2022-10-04T16:24:40;1.58;;;0.25;;
67100;SDS011;54019;61.746;16.106;2022-10-04T16:27:13;1.23;;;0.30;;
67100;SDS011;54019;61.746;16.106;2022-10-04T16:29:54;0.52;;;0.25;;
67100;SDS011;54019;61.746;16.106;2022-10-04T16:32:28;0.40;;;0.20;;
67100;SDS011;54019;61.746;16.106;2022-10-04T16:35:00;0.95;;;0.25;;
67100;SDS011;54019;61.746;16.106;2022-10-04T16:37:32;1.00;;;0.25;;
67100;SDS011;54019;61.746;16.106;2022-10-04T16:40:14;0.82;;;0.30;;
67100;SDS011;54019;61.746;16.106;2022-10-04T16:42:51;2.92;;;0.50;;
67100;SDS011;54019;61.746;16.106;2022-10-04T16:45:31;0.60;;;0.20;;
67100;SDS011;54019;61.746;16.106;2022-10-04T16:48:03;2.83;;;0.30;;
67100;SDS011;54019;61.746;16.106;2022-10-04T16:50:48;3.42;;;0.70;;
67100;SDS011;54019;61.746;16.106;2022-10-04T16:53:23;2.22;;;0.40;;
67100;SDS011;54019;61.746;16.106;2022-10-04T16:56:10;1.23;;;0.40;;
67100;SDS011;54019;61.746;16.106;2022-10-04T16:58:42;2.70;;;0.40;;
67100;SDS011;54019;61.746;16.106;2022-10-04T17:04:38;1.25;;;0.28;;
67100;SDS011;54019;61.746;16.106;2022-10-04T17:07:19;0.63;;;0.35;;
67100;SDS011;54019;61.746;16.106;2022-10-04T17:09:52;1.52;;;0.30;;
67100;SDS011;54019;61.746;16.106;2022-10-04T17:12:25;0.63;;;0.22;;
67100;SDS011;54019;61.746;16.106;2022-10-04T17:18:12;2.43;;;0.30;;
67100;SDS011;54019;61.746;16.106;2022-10-04T17:23:23;2.40;;;0.52;;
67100;SDS011;54019;61.746;16.106;2022-10-04T17:26:18;1.27;;;0.30;;
67100;SDS011;54019;61.746;16.106;2022-10-04T17:28:59;2.15;;;0.40;;
67100;SDS011;54019;61.746;16.106;2022-10-04T17:31:33;0.55;;;0.30;;
67100;SDS011;54019;61.746;16.106;2022-10-04T17:34:10;1.58;;;0.32;;